Time;durP1;ratioP1;P1;durP2;ratioP2;P2;SDS_P1;SDS_P2;PMS_P1;PMS_P2;Temp;Humidity;BMP_temperature;BMP_pressure;BME280_temperature;BME280_humidity;BME280_pressure;Samples;Min_cycle;Max_cycle;Signal;HPM_P1;HPM_P2
2021/06/19 00:00:35;;;;;;;9.85;8.95;;;;;;;21.70;68.50;93762.91;6124074;23;20006;-81
2021/06/19 00:03:02;;;;;;;11.38;8.63;;;;;;;21.64;69.01;93759.75;6112341;23;20029;-81
2021/06/19 00:05:28;;;;;;;9.18;8.38;;;;;;;21.62;69.14;93759.31;6109882;23;20080;-81
2021/06/19 00:07:54;;;;;;;10.00;8.98;;;;;;;21.65;68.78;93750.53;6112524;23;20017;-81
2021/06/19 00:10:20;;;;;;;14.13;9.15;;;;;;;21.66;68.49;93745.94;6113818;23;20002;-81
2021/06/19 00:12:47;;;;;;;9.20;8.40;;;;;;;21.66;67.96;93752.09;6116473;23;20010;-82
2021/06/19 00:15:15;;;;;;;9.18;8.35;;;;;;;21.71;67.86;93751.00;6114307;23;20018;-81
2021/06/19 00:17:41;;;;;;;9.32;8.43;;;;;;;21.73;67.73;93751.44;6113073;23;20022;-82
2021/06/19 00:20:15;;;;;;;9.52;8.05;;;;;;;21.73;67.78;93754.13;6111696;23;20018;-81
2021/06/19 00:22:41;;;;;;;9.97;8.33;;;;;;;21.65;68.09;93750.53;6119099;23;20013;-81
2021/06/19 00:25:09;;;;;;;12.40;9.32;;;;;;;21.68;67.86;93749.81;6087849;23;20013;-82
2021/06/19 00:27:35;;;;;;;12.82;8.73;;;;;;;21.55;67.57;93740.41;6126713;23;20085;-82
2021/06/19 00:30:00;;;;;;;9.00;8.10;;;;;;;21.59;67.85;93755.44;6112609;23;20041;-81
2021/06/19 00:32:26;;;;;;;10.15;9.10;;;;;;;21.55;67.79;93746.53;6118679;23;20108;-81
2021/06/19 00:34:52;;;;;;;8.55;7.70;;;;;;;21.45;67.98;93747.09;6086679;23;20021;-81
2021/06/19 00:37:17;;;;;;;8.75;7.95;;;;;;;21.41;68.00;93735.53;6088171;23;20013;-81
2021/06/19 00:39:42;;;;;;;8.88;7.53;;;;;;;21.57;67.58;93743.47;6125259;23;20006;-82
2021/06/19 00:42:08;;;;;;;9.55;8.05;;;;;;;21.58;68.02;93742.34;6087635;23;20403;-81
2021/06/19 00:44:33;;;;;;;11.52;7.90;;;;;;;21.67;67.14;93739.41;6099398;23;20021;-82
2021/06/19 00:47:00;;;;;;;8.60;7.80;;;;;;;21.64;67.47;93742.84;6084413;23;20068;-81
2021/06/19 00:49:26;;;;;;;8.80;7.90;;;;;;;21.60;67.60;93737.38;6122301;23;20224;-81
2021/06/19 00:51:52;;;;;;;9.68;7.38;;;;;;;21.56;68.14;93739.22;6124660;23;20345;-81
2021/06/19 00:54:18;;;;;;;9.85;8.10;;;;;;;21.55;68.65;93741.16;6113851;23;20064;-82
2021/06/19 00:56:44;;;;;;;7.90;7.10;;;;;;;21.64;67.82;93743.63;6111388;23;20010;-81
2021/06/19 00:59:10;;;;;;;8.23;7.43;;;;;;;21.59;68.23;93742.00;6113191;23;20032;-84
2021/06/19 01:01:36;;;;;;;8.40;7.45;;;;;;;21.62;68.26;93737.81;6113486;23;20244;-81
2021/06/19 01:04:04;;;;;;;8.60;7.80;;;;;;;21.60;68.59;93732.78;6090142;23;20002;-81
2021/06/19 01:06:31;;;;;;;9.82;8.05;;;;;;;21.54;69.17;93734.22;6086910;23;20018;-80
2021/06/19 01:08:56;;;;;;;8.50;7.38;;;;;;;21.56;68.52;93723.09;6115043;23;20675;-82
2021/06/19 01:11:23;;;;;;;7.50;6.88;;;;;;;21.56;68.13;93713.13;6114189;23;20018;-81
2021/06/19 01:13:51;;;;;;;8.10;6.75;;;;;;;21.43;69.10;93721.72;6112773;23;20013;-81
2021/06/19 01:16:20;;;;;;;7.75;6.95;;;;;;;21.39;68.28;93710.94;6121872;23;20097;-81
2021/06/19 01:18:47;;;;;;;7.00;6.30;;;;;;;21.34;67.92;93715.81;6115988;23;20803;-81
2021/06/19 01:21:19;;;;;;;7.10;6.50;;;;;;;21.44;67.41;93712.53;6087461;23;20349;-81
2021/06/19 01:23:46;;;;;;;6.93;6.28;;;;;;;21.35;67.18;93715.47;6114573;23;20052;-80
2021/06/19 01:26:14;;;;;;;6.28;5.68;;;;;;;21.32;67.23;93700.03;6114334;23;20022;-81
2021/06/19 01:28:40;;;;;;;5.55;5.10;;;;;;;21.34;66.41;93707.75;6085880;23;20384;-80
2021/06/19 01:31:05;;;;;;;6.28;5.20;;;;;;;21.35;65.92;93720.84;6088139;23;20076;-81
2021/06/19 01:33:31;;;;;;;4.97;4.47;;;;;;;21.34;66.38;93718.50;6113636;23;20002;-80
2021/06/19 01:35:56;;;;;;;4.95;4.53;;;;;;;21.26;66.80;93722.97;6116068;23;20018;-81
2021/06/19 01:38:21;;;;;;;4.65;4.07;;;;;;;21.22;66.42;93715.97;6113244;23;20123;-81
2021/06/19 01:40:47;;;;;;;4.18;3.88;;;;;;;21.12;66.79;93718.09;6120338;23;20445;-81
2021/06/19 01:43:12;;;;;;;3.72;3.42;;;;;;;21.11;67.00;93716.53;6122562;23;20002;-81
2021/06/19 01:45:38;;;;;;;5.38;3.05;;;;;;;21.15;65.51;93722.00;6115657;23;20001;-81
2021/06/19 01:48:06;;;;;;;3.90;3.30;;;;;;;21.17;65.32;93723.19;6115223;23;20076;-83
2021/06/19 01:50:32;;;;;;;3.63;3.33;;;;;;;21.13;65.82;93730.41;6117359;23;20114;-81
2021/06/19 01:52:59;;;;;;;3.85;3.53;;;;;;;21.13;67.16;93724.22;6113363;23;20076;-81
2021/06/19 01:55:25;;;;;;;4.30;3.90;;;;;;;21.05;68.36;93739.47;6113506;23;20096;-80
2021/06/19 01:57:53;;;;;;;4.05;3.65;;;;;;;21.05;69.19;93727.94;6089458;23;20026;-81
2021/06/19 02:00:21;;;;;;;4.57;3.83;;;;;;;20.83;70.04;93721.34;6087266;23;20018;-80
2021/06/19 02:02:47;;;;;;;4.18;3.78;;;;;;;20.80;69.98;93735.50;6113190;23;20232;-80
2021/06/19 02:05:14;;;;;;;5.32;3.15;;;;;;;20.78;69.40;93745.81;6116857;23;20549;-80
2021/06/19 02:07:46;;;;;;;8.18;3.50;;;;;;;20.80;69.40;93748.94;6120695;23;20381;-81
2021/06/19 02:10:13;;;;;;;3.92;2.92;;;;;;;20.72;69.99;93752.63;6122849;23;20005;-81
2021/06/19 02:12:38;;;;;;;3.38;2.83;;;;;;;20.58;70.22;93757.66;6124972;23;20524;-80
2021/06/19 02:15:05;;;;;;;3.53;3.22;;;;;;;20.40;71.32;93767.25;6113126;23;20099;-81
2021/06/19 02:17:30;;;;;;;3.53;3.20;;;;;;;20.52;71.70;93759.09;6112490;23;20018;-81
2021/06/19 02:19:55;;;;;;;4.20;3.22;;;;;;;20.41;72.87;93750.03;6115296;23;20024;-80
2021/06/19 02:22:21;;;;;;;3.53;3.22;;;;;;;20.40;73.31;93751.16;6151182;23;20443;-80
2021/06/19 02:24:46;;;;;;;6.22;3.30;;;;;;;20.26;73.92;93749.69;6153898;23;20010;-80
2021/06/19 02:27:13;;;;;;;4.40;3.70;;;;;;;20.06;74.81;93745.41;6143823;23;20041;-80
2021/06/19 02:29:40;;;;;;;4.70;3.55;;;;;;;20.09;75.91;93774.19;6144464;23;20119;-80
2021/06/19 02:32:07;;;;;;;4.43;4.03;;;;;;;20.03;76.80;93778.28;6141916;23;20024;-79
2021/06/19 02:34:33;;;;;;;4.10;3.53;;;;;;;20.05;76.82;93789.44;6141403;23;20107;-81
2021/06/19 02:36:59;;;;;;;5.28;3.28;;;;;;;20.23;76.00;93781.81;6155072;23;20334;-80
2021/06/19 02:39:24;;;;;;;6.75;3.92;;;;;;;20.16;75.97;93778.97;6141587;23;20013;-80
2021/06/19 02:41:50;;;;;;;7.25;4.28;;;;;;;20.08;76.41;93780.72;6144026;23;20049;-80
2021/06/19 02:44:15;;;;;;;4.90;3.83;;;;;;;19.92;77.09;93769.22;6142153;23;20654;-80
2021/06/19 02:46:41;;;;;;;3.83;3.53;;;;;;;19.89;77.04;93769.88;6141129;23;20014;-79
2021/06/19 02:49:07;;;;;;;7.18;4.03;;;;;;;19.83;76.98;93771.28;6150982;23;20013;-79
2021/06/19 02:51:32;;;;;;;6.78;4.47;;;;;;;19.76;77.56;93768.44;6144426;23;20331;-79
2021/06/19 02:53:58;;;;;;;11.07;4.55;;;;;;;19.52;78.58;93760.56;6115768;23;20653;-80
2021/06/19 02:56:23;;;;;;;5.03;4.28;;;;;;;19.73;78.39;93766.44;6146257;23;20025;-79
2021/06/19 02:58:49;;;;;;;5.10;3.72;;;;;;;19.59;78.12;93756.16;6148642;23;20020;-79
2021/06/19 03:01:14;;;;;;;4.97;4.47;;;;;;;19.59;78.21;93760.75;6115525;23;20063;-80
2021/06/19 03:03:39;;;;;;;5.25;4.82;;;;;;;19.62;78.18;93758.13;6143904;23;20001;-80
2021/06/19 03:06:05;;;;;;;5.18;4.10;;;;;;;19.74;77.63;93755.34;6140965;23;20041;-80
2021/06/19 03:08:30;;;;;;;9.50;4.53;;;;;;;19.74;78.34;93752.69;6115693;23;20064;-80
2021/06/19 03:10:56;;;;;;;5.15;4.25;;;;;;;19.83;78.49;93750.63;6114562;23;20013;-80
2021/06/19 03:13:21;;;;;;;4.55;4.03;;;;;;;19.89;78.38;93743.84;6151038;23;20036;-80
2021/06/19 03:15:47;;;;;;;5.18;4.53;;;;;;;19.95;78.15;93740.91;6136879;23;20024;-79
2021/06/19 03:18:12;;;;;;;5.50;4.63;;;;;;;19.86;78.23;93744.56;6113175;23;20041;-80
2021/06/19 03:20:38;;;;;;;7.38;4.47;;;;;;;19.97;78.12;93750.16;6111885;23;20018;-79
2021/06/19 03:23:05;;;;;;;5.35;4.85;;;;;;;19.92;77.65;93747.75;6087032;23;20640;-79
2021/06/19 03:25:33;;;;;;;5.30;4.80;;;;;;;19.82;78.11;93749.06;6119798;23;20017;-80
2021/06/19 03:28:00;;;;;;;5.32;4.78;;;;;;;19.86;78.13;93757.19;6088704;23;20001;-80
2021/06/19 03:30:28;;;;;;;7.57;5.40;;;;;;;19.77;78.87;93749.31;6112530;23;20026;-80
2021/06/19 03:32:54;;;;;;;7.55;5.15;;;;;;;19.79;78.07;93747.06;6113023;23;20017;-80
2021/06/19 03:35:20;;;;;;;6.25;4.95;;;;;;;19.76;79.16;93744.28;6112189;23;20404;-80
2021/06/19 03:37:46;;;;;;;6.32;5.70;;;;;;;19.88;78.93;93746.91;6111973;23;20598;-80
2021/06/19 03:40:13;;;;;;;7.32;5.85;;;;;;;19.74;80.02;93735.84;6119955;23;20009;-80
2021/06/19 03:42:39;;;;;;;6.15;5.63;;;;;;;19.75;80.36;93737.38;6088705;23;20085;-80
2021/06/19 03:45:07;;;;;;;6.32;5.72;;;;;;;19.97;80.32;93742.13;6111037;23;20024;-79
2021/06/19 03:47:32;;;;;;;7.63;6.80;;;;;;;19.86;80.54;93746.44;6110463;23;20516;-80
2021/06/19 03:49:58;;;;;;;8.07;7.35;;;;;;;19.88;80.67;93736.94;6084763;23;20021;-79
2021/06/19 03:52:24;;;;;;;8.65;7.47;;;;;;;19.72;81.22;93738.84;6108914;23;20025;-79
2021/06/19 03:54:49;;;;;;;8.85;7.95;;;;;;;19.62;81.97;93738.59;6085900;23;20041;-79
2021/06/19 03:57:28;;;;;;;9.93;7.43;;;;;;;19.75;81.70;93742.72;6110824;23;20377;-79
2021/06/19 03:59:53;;;;;;;7.95;7.15;;;;;;;19.82;80.86;93737.56;6084040;23;20013;-79
2021/06/19 04:02:20;;;;;;;9.45;7.03;;;;;;;19.69;81.95;93739.56;6110590;23;20117;-80
2021/06/19 04:04:46;;;;;;;11.20;7.82;;;;;;;19.88;81.39;93746.91;6117548;23;20006;-79
2021/06/19 04:07:12;;;;;;;8.07;7.18;;;;;;;19.76;81.81;93741.63;6084139;23;20006;-79
2021/06/19 04:09:38;;;;;;;7.72;7.03;;;;;;;19.77;81.95;93741.28;6121678;23;20303;-80
2021/06/19 04:12:04;;;;;;;9.98;6.57;;;;;;;19.88;81.43;93742.31;6110651;23;20353;-80
2021/06/19 04:14:29;;;;;;;10.57;8.55;;;;;;;19.87;81.67;93739.97;6083626;23;20076;-79
2021/06/19 04:16:55;;;;;;;11.50;7.63;;;;;;;20.01;82.21;93742.19;6110364;23;20025;-80
2021/06/19 04:19:20;;;;;;;8.23;7.43;;;;;;;20.13;82.12;93742.88;6109766;23;20010;-80
2021/06/19 04:21:46;;;;;;;7.75;6.95;;;;;;;19.92;82.45;93728.97;6123275;23;20502;-79
2021/06/19 04:24:11;;;;;;;12.75;8.98;;;;;;;19.87;83.16;93729.25;6109208;23;20560;-79
2021/06/19 04:26:36;;;;;;;8.57;7.70;;;;;;;20.00;83.11;93728.00;6111042;23;20013;-80
2021/06/19 04:29:02;;;;;;;8.95;7.93;;;;;;;20.07;82.46;93730.88;6114541;23;20025;-80
2021/06/19 04:31:29;;;;;;;8.35;7.55;;;;;;;20.21;82.78;93725.81;6119186;23;20014;-79
2021/06/19 04:33:54;;;;;;;9.73;8.32;;;;;;;20.34;81.99;93734.53;6120847;23;20085;-80
2021/06/19 04:36:20;;;;;;;8.68;7.88;;;;;;;20.56;81.81;93733.88;6110500;23;20393;-80
2021/06/19 04:38:45;;;;;;;15.02;9.32;;;;;;;20.62;82.25;93742.44;6109429;23;20018;-80
2021/06/19 04:41:23;;;;;;;9.02;7.85;;;;;;;20.79;81.95;93742.00;6083817;23;20026;-80
2021/06/19 04:46:14;;;;;;;9.63;8.25;;;;;;;20.93;81.96;93750.34;6119037;23;20033;-80
2021/06/19 04:48:39;;;;;;;8.93;8.10;;;;;;;20.98;81.61;93750.06;6122120;23;20037;-80
2021/06/19 04:51:05;;;;;;;11.85;8.80;;;;;;;21.04;81.47;93761.31;6109202;23;20519;-80
2021/06/19 04:53:31;;;;;;;12.02;8.30;;;;;;;21.08;81.22;93762.91;6109658;23;20041;-80
2021/06/19 04:55:56;;;;;;;11.95;8.35;;;;;;;21.18;80.26;93764.28;6116901;23;20096;-80
2021/06/19 04:58:24;;;;;;;9.90;8.93;;;;;;;21.16;80.41;93756.56;6102405;23;20384;-81
2021/06/19 05:00:49;;;;;;;11.75;8.88;;;;;;;21.34;79.54;93756.91;6101634;23;20017;-80
2021/06/19 05:03:18;;;;;;;11.55;8.10;;;;;;;21.45;79.30;93767.88;6113596;23;20021;-81
2021/06/19 05:05:46;;;;;;;9.35;7.97;;;;;;;21.35;79.69;93755.00;6114364;23;20057;-81
2021/06/19 05:08:11;;;;;;;8.77;7.93;;;;;;;21.48;79.56;93762.53;6112395;23;20692;-81
2021/06/19 05:10:36;;;;;;;8.05;7.25;;;;;;;21.59;78.58;93763.50;6112408;23;20026;-81
2021/06/19 05:13:02;;;;;;;8.98;7.30;;;;;;;21.60;76.75;93764.25;6124791;23;20087;-81
2021/06/19 05:15:27;;;;;;;9.43;8.13;;;;;;;21.69;76.81;93764.84;6110703;23;20434;-80
2021/06/19 05:17:54;;;;;;;9.05;7.03;;;;;;;21.73;76.36;93762.19;6114402;23;20025;-80
2021/06/19 05:20:20;;;;;;;16.35;11.05;;;;;;;21.85;75.76;93770.84;6097825;23;20022;-81
2021/06/19 05:22:45;;;;;;;12.68;9.95;;;;;;;21.97;74.84;93756.47;6084980;23;20768;-81
2021/06/19 05:25:13;;;;;;;9.48;8.13;;;;;;;22.50;74.36;93751.09;6121069;23;20940;-81
2021/06/19 05:27:39;;;;;;;12.13;7.97;;;;;;;22.96;72.25;93755.19;6123941;23;20002;-81
2021/06/19 05:30:05;;;;;;;14.38;12.48;;;;;;;23.02;70.90;93744.88;6085655;23;20129;-81
2021/06/19 05:32:30;;;;;;;15.18;11.20;;;;;;;23.45;70.45;93752.31;6115599;23;20022;-80
2021/06/19 05:34:56;;;;;;;10.20;9.20;;;;;;;23.99;68.26;93748.16;6115716;23;20021;-81
2021/06/19 05:37:21;;;;;;;7.55;6.75;;;;;;;24.80;67.00;93753.34;6111301;23;20302;-81
2021/06/19 05:39:47;;;;;;;4.70;4.30;;;;;;;25.24;60.26;93759.34;6114714;23;20225;-80
2021/06/19 05:42:12;;;;;;;4.78;4.38;;;;;;;25.43;58.41;93761.72;6111641;23;20519;-81
2021/06/19 05:44:37;;;;;;;6.05;4.18;;;;;;;25.40;59.30;93759.78;6112043;23;20477;-81
2021/06/19 05:47:03;;;;;;;5.85;5.35;;;;;;;25.26;60.82;93759.75;6109815;23;20153;-80
2021/06/19 05:49:29;;;;;;;6.75;5.13;;;;;;;25.29;60.41;93752.78;6111071;23;20022;-81
2021/06/19 05:51:54;;;;;;;6.50;4.82;;;;;;;25.34;60.31;93766.72;6122845;23;20002;-80
2021/06/19 05:54:19;;;;;;;6.55;5.90;;;;;;;25.42;58.26;93770.22;6112788;23;20471;-80
2021/06/19 05:56:45;;;;;;;5.95;5.35;;;;;;;25.27;59.61;93758.56;6113541;23;20360;-80
2021/06/19 05:59:10;;;;;;;8.05;6.63;;;;;;;24.92;62.81;93761.91;6085832;23;20049;-80
2021/06/19 06:01:36;;;;;;;8.77;7.07;;;;;;;24.64;64.88;93766.38;6118807;23;20033;-80
2021/06/19 06:04:01;;;;;;;11.48;8.18;;;;;;;24.38;66.91;93765.47;6112477;23;20009;-80
2021/06/19 06:06:27;;;;;;;10.20;7.10;;;;;;;24.24;66.17;93759.19;6111964;23;20021;-80
2021/06/19 06:08:52;;;;;;;9.57;6.90;;;;;;;24.31;66.21;93757.28;6082291;23;20056;-79
2021/06/19 06:11:19;;;;;;;10.80;7.05;;;;;;;24.10;66.89;93776.78;6116205;23;20018;-80
2021/06/19 06:13:44;;;;;;;6.40;5.72;;;;;;;24.01;66.83;93780.94;6107038;23;20105;-80
2021/06/19 06:16:10;;;;;;;10.43;8.48;;;;;;;23.90;67.79;93777.38;6093832;23;20112;-81
2021/06/19 06:18:36;;;;;;;11.65;7.28;;;;;;;23.77;67.15;93784.97;6139638;23;20005;-81
2021/06/19 06:21:03;;;;;;;13.10;6.63;;;;;;;23.37;67.14;93783.00;6140539;23;20021;-80
2021/06/19 06:23:29;;;;;;;9.15;7.97;;;;;;;23.20;69.33;93780.88;6140761;23;20385;-79
2021/06/19 06:25:54;;;;;;;8.38;7.43;;;;;;;23.11;70.29;93783.09;6110694;23;20013;-78
2021/06/19 06:28:20;;;;;;;10.02;7.55;;;;;;;23.09;70.50;93793.47;6146920;23;20008;-79
2021/06/19 06:30:46;;;;;;;11.20;7.15;;;;;;;22.92;70.93;93788.63;6142065;23;20013;-79
2021/06/19 06:33:12;;;;;;;13.23;7.68;;;;;;;22.64;72.25;93787.06;6111386;23;20056;-79
2021/06/19 06:35:37;;;;;;;8.93;7.15;;;;;;;22.38;71.29;93795.94;6137013;23;20060;-79
2021/06/19 06:38:03;;;;;;;10.52;7.03;;;;;;;22.37;71.40;93789.00;6138461;23;20157;-78
2021/06/19 06:40:29;;;;;;;13.85;8.13;;;;;;;22.35;72.05;93803.97;6145923;23;20029;-78
2021/06/19 06:42:54;;;;;;;8.57;7.43;;;;;;;22.34;72.22;93788.94;6142653;23;20001;-78
2021/06/19 06:45:20;;;;;;;22.90;9.10;;;;;;;22.26;72.60;93789.97;6114260;23;20032;-78
2021/06/19 06:47:45;;;;;;;8.57;7.68;;;;;;;22.16;73.88;93785.22;6142623;23;20281;-78
2021/06/19 06:50:11;;;;;;;13.63;9.20;;;;;;;22.14;73.93;93785.56;6143824;23;20404;-78
2021/06/19 06:52:37;;;;;;;10.30;7.75;;;;;;;22.28;73.05;93785.81;6111928;23;20045;-78
2021/06/19 06:55:05;;;;;;;8.55;7.65;;;;;;;22.12;73.41;93785.16;6112754;23;20287;-78
2021/06/19 06:57:33;;;;;;;7.40;6.75;;;;;;;22.24;73.11;93776.09;6140677;23;20027;-79
2021/06/19 06:59:58;;;;;;;8.45;7.38;;;;;;;22.11;73.90;93780.13;6109726;23;20412;-78
2021/06/19 07:02:25;;;;;;;9.40;7.93;;;;;;;22.34;74.30;93780.88;6136183;23;20109;-78
2021/06/19 07:04:50;;;;;;;11.52;7.45;;;;;;;22.67;73.08;93778.28;6137245;23;20009;-78
2021/06/19 07:07:16;;;;;;;10.30;6.53;;;;;;;22.90;74.13;93775.53;6143857;23;20001;-78
2021/06/19 07:09:41;;;;;;;9.40;6.90;;;;;;;23.18;72.56;93775.06;6140060;23;20342;-78
2021/06/19 07:12:08;;;;;;;6.65;6.03;;;;;;;23.45;71.84;93768.50;6136171;23;20104;-79
2021/06/19 07:14:33;;;;;;;11.05;7.30;;;;;;;23.78;69.10;93764.16;6144081;23;20100;-78
2021/06/19 07:16:59;;;;;;;8.65;7.78;;;;;;;24.31;68.05;93768.09;6115681;23;20089;-79
2021/06/19 07:19:25;;;;;;;9.50;8.60;;;;;;;24.92;67.61;93761.16;6085337;23;20441;-79
2021/06/19 07:21:50;;;;;;;6.82;6.20;;;;;;;25.69;62.48;93749.03;6123250;23;20002;-79
2021/06/19 07:24:39;;;;;;;5.80;4.65;;;;;;;26.75;58.30;93754.44;6110447;23;20018;-88
2021/06/19 07:27:53;;;;;;;;;;;;;;;;;;;;;
2021/06/19 07:30:26;;;;;;;4.07;3.78;;;;;;;30.03;50.02;93727.53;5873807;23;20032;-81
2021/06/19 07:32:57;;;;;;;5.05;3.17;;;;;;;31.27;45.31;93733.53;6018130;23;20034;-79
2021/06/19 07:35:58;;;;;;;;;;;;;;;;;;;;;
2021/06/19 07:52:26;;;;;;;3.28;2.97;;;;;;;35.63;33.46;93730.81;5734147;24;20022;-78
2021/06/19 07:55:28;;;;;;;;;;;;;;;;;;;;;
2021/06/19 07:58:37;;;;;;;;;;;;;;;;;;;;;
2021/06/19 08:01:27;;;;;;;;;;;;;;;;;;;;;
2021/06/19 08:08:09;;;;;;;;;;;;;;;;;;;;;
2021/06/19 08:10:35;;;;;;;3.30;2.40;;;;;;;37.05;33.83;93702.31;5822664;24;20527;-80
2021/06/19 08:13:00;;;;;;;7.68;6.88;;;;;;;37.76;32.88;93724.00;5953116;23;20042;-81
2021/06/19 08:15:26;;;;;;;3.78;3.47;;;;;;;38.02;31.18;93727.94;6044137;23;20049;-83
2021/06/19 08:17:52;;;;;;;3.97;2.88;;;;;;;37.85;32.06;93735.75;6084716;23;20787;-80
2021/06/19 08:20:19;;;;;;;4.75;3.03;;;;;;;37.90;32.01;93726.84;6110012;23;20068;-86
2021/06/19 08:22:45;;;;;;;3.25;2.33;;;;;;;38.31;30.18;93722.56;6109580;23;20022;-86
2021/06/19 08:25:11;;;;;;;3.40;2.97;;;;;;;37.82;31.23;93728.44;6108002;23;20016;-80
2021/06/19 08:27:40;;;;;;;4.35;3.63;;;;;;;37.44;32.05;93723.41;6114329;23;20006;-81
2021/06/19 08:30:07;;;;;;;3.45;2.88;;;;;;;37.16;32.75;93716.41;6112681;23;20018;-80
2021/06/19 08:32:32;;;;;;;3.13;2.65;;;;;;;37.15;31.98;93717.66;6087135;23;20013;-80
2021/06/19 08:34:58;;;;;;;4.07;3.65;;;;;;;36.77;33.12;93710.59;6085673;23;20064;-82
2021/06/19 08:37:23;;;;;;;4.20;3.20;;;;;;;36.27;32.88;93728.38;6122253;23;20014;-80
2021/06/19 08:39:49;;;;;;;5.85;2.92;;;;;;;36.31;34.66;93719.97;6123689;23;20053;-81
2021/06/19 08:42:14;;;;;;;5.55;3.33;;;;;;;35.67;34.72;93718.94;6112102;23;20423;-80
2021/06/19 08:44:44;;;;;;;4.63;3.60;;;;;;;35.29;34.48;93721.88;6110458;23;20048;-79
2021/06/19 08:47:11;;;;;;;4.07;3.67;;;;;;;34.46;36.54;93712.16;6115163;23;20022;-80
2021/06/19 08:49:37;;;;;;;7.60;3.65;;;;;;;34.24;36.54;93716.84;6112022;23;20614;-79
2021/06/19 08:52:03;;;;;;;4.13;3.53;;;;;;;33.98;37.75;93712.53;6113689;23;20097;-79
2021/06/19 08:54:41;;;;;;;4.30;3.90;;;;;;;33.80;38.26;93704.88;6108910;23;20029;-79
2021/06/19 08:57:10;;;;;;;4.35;3.65;;;;;;;33.66;37.57;93706.06;6085292;23;20171;-79
2021/06/19 08:59:37;;;;;;;4.68;4.22;;;;;;;33.29;38.45;93704.78;6112315;23;20344;-79
2021/06/19 09:02:04;;;;;;;5.32;4.28;;;;;;;32.55;38.69;93709.50;6117191;23;20017;-79
2021/06/19 09:04:50;;;;;;;11.27;6.80;;;;;;;32.48;39.60;93699.53;6121023;23;20014;-79
2021/06/19 09:07:34;;;;;;;14.38;8.52;;;;;;;32.39;38.36;93693.16;6116868;23;20033;-79
2021/06/19 09:10:15;;;;;;;3.78;3.17;;;;;;;32.81;37.39;93685.78;6113747;23;20002;-79
2021/06/19 09:12:40;;;;;;;4.00;3.38;;;;;;;32.90;37.77;93694.91;6082891;23;20025;-81
2021/06/19 09:15:15;;;;;;;5.68;3.92;;;;;;;32.79;36.96;93696.44;6111521;23;20160;-79
2021/06/19 09:17:41;;;;;;;4.15;3.75;;;;;;;32.86;37.25;93699.72;6113004;23;20109;-80
2021/06/19 09:20:07;;;;;;;4.90;3.33;;;;;;;32.64;37.11;93693.31;6117082;23;20108;-79
2021/06/19 09:22:33;;;;;;;4.18;3.45;;;;;;;32.52;38.50;93696.69;6118415;23;20014;-79
2021/06/19 09:24:59;;;;;;;5.30;3.45;;;;;;;32.09;38.77;93692.28;6083855;23;20013;-82
2021/06/19 09:27:32;;;;;;;6.15;4.15;;;;;;;31.87;38.46;93698.66;6110287;23;20507;-82
2021/06/19 09:30:15;;;;;;;7.43;5.38;;;;;;;31.61;40.12;93706.69;6110305;23;20026;-79
2021/06/19 09:32:47;;;;;;;10.38;4.63;;;;;;;30.91;41.18;93698.72;6084743;23;20661;-79
2021/06/19 09:35:16;;;;;;;5.90;4.35;;;;;;;30.53;40.08;93687.38;6116222;23;20467;-82
2021/06/19 09:37:45;;;;;;;4.85;4.38;;;;;;;30.65;41.39;93696.09;6086030;23;20308;-79
2021/06/19 09:40:55;;;;;;;5.78;4.38;;;;;;;30.47;41.38;93699.16;6085231;23;20001;-79
2021/06/19 09:43:29;;;;;;;6.70;4.55;;;;;;;30.48;43.45;93693.31;6051304;23;20020;-78
2021/06/19 09:45:58;;;;;;;5.82;4.25;;;;;;;30.34;46.35;93693.53;6088182;23;20014;-79
2021/06/19 09:48:30;;;;;;;5.68;4.50;;;;;;;30.26;46.22;93702.22;6111302;23;20033;-79
2021/06/19 09:51:24;;;;;;;5.00;4.22;;;;;;;29.89;46.90;93701.28;6112365;23;20046;-81
2021/06/19 09:53:56;;;;;;;6.23;4.33;;;;;;;29.31;48.74;93716.09;6084570;23;20479;-79
2021/06/19 09:56:22;;;;;;;6.38;5.05;;;;;;;28.93;49.41;93714.59;6111926;23;20033;-79
2021/06/19 09:58:56;;;;;;;5.40;4.57;;;;;;;28.39;50.92;93706.22;6109554;23;20017;-79
2021/06/19 10:01:35;;;;;;;5.13;4.63;;;;;;;28.22;51.13;93707.13;6111243;23;20009;-80
2021/06/19 10:04:03;;;;;;;6.88;4.60;;;;;;;27.81;52.47;93699.69;6125346;23;20009;-78
2021/06/19 10:06:30;;;;;;;6.70;4.90;;;;;;;27.62;53.90;93691.28;6084965;23;20018;-78
2021/06/19 10:08:57;;;;;;;7.72;5.03;;;;;;;27.40;55.54;93696.06;6113946;23;20044;-78
2021/06/19 10:11:26;;;;;;;6.35;5.30;;;;;;;27.40;55.26;93685.22;6112518;23;20037;-79
2021/06/19 10:13:57;;;;;;;5.65;5.13;;;;;;;27.49;54.04;93683.63;6110379;23;20013;-79
2021/06/19 10:16:24;;;;;;;6.90;4.75;;;;;;;27.36;54.83;93687.19;6118647;23;20437;-79
2021/06/19 10:18:53;;;;;;;6.03;4.50;;;;;;;27.43;53.22;93671.59;6112403;23;20081;-79
2021/06/19 10:21:20;;;;;;;6.10;5.22;;;;;;;27.64;55.31;93672.66;6108571;23;20484;-78
2021/06/19 10:23:46;;;;;;;5.60;5.20;;;;;;;27.78;54.87;93659.75;6109514;23;20021;-78
2021/06/19 10:26:11;;;;;;;6.85;5.18;;;;;;;27.76;55.06;93650.47;6109887;23;20025;-78
2021/06/19 10:28:48;;;;;;;6.93;5.78;;;;;;;27.96;55.56;93663.09;6117560;23;20018;-78
2021/06/19 10:31:17;;;;;;;6.22;5.63;;;;;;;27.73;56.24;93641.19;6118665;23;20073;-78
2021/06/19 10:33:42;;;;;;;7.00;5.40;;;;;;;28.06;55.16;93655.25;6110273;23;20005;-78
2021/06/19 10:36:10;;;;;;;5.20;4.80;;;;;;;28.04;54.09;93654.88;6109091;23;20101;-78
2021/06/19 10:39:08;;;;;;;5.28;4.78;;;;;;;28.07;54.86;93654.06;6110314;23;20053;-78
2021/06/19 10:41:42;;;;;;;5.07;4.47;;;;;;;28.14;52.28;93648.63;6077188;23;20832;-78
2021/06/19 10:44:08;;;;;;;5.32;4.85;;;;;;;28.21;52.95;93641.16;6081698;23;20025;-78
2021/06/19 10:46:36;;;;;;;6.05;4.43;;;;;;;28.22;51.71;93637.25;6105648;23;20014;-78
2021/06/19 10:49:22;;;;;;;3.63;3.33;;;;;;;28.06;43.95;93625.34;6119560;23;20041;-78
2021/06/19 10:51:48;;;;;;;4.70;4.03;;;;;;;28.25;46.33;93627.53;6088048;23;20041;-79
2021/06/19 10:54:18;;;;;;;4.05;3.38;;;;;;;28.24;45.28;93621.34;6107860;23;20025;-79
2021/06/19 10:56:49;;;;;;;5.68;3.55;;;;;;;28.04;49.53;93619.56;6112125;23;20017;-78
2021/06/19 10:59:29;;;;;;;3.72;2.38;;;;;;;28.23;43.77;93624.44;6114767;23;20357;-78
2021/06/19 11:02:03;;;;;;;4.15;2.15;;;;;;;28.41;42.34;93631.25;6116916;23;20100;-78
2021/06/19 11:04:34;;;;;;;3.47;3.17;;;;;;;28.57;43.18;93633.41;6118464;23;20669;-79
2021/06/19 11:07:01;;;;;;;4.43;3.05;;;;;;;28.66;48.49;93630.94;6087012;23;20012;-78
2021/06/19 11:09:50;;;;;;;4.07;3.40;;;;;;;28.73;48.06;93638.28;6085015;23;20550;-79
2021/06/19 11:12:18;;;;;;;4.03;3.63;;;;;;;28.64;48.51;93646.13;6103559;23;20044;-79
2021/06/19 11:14:44;;;;;;;9.25;4.32;;;;;;;28.61;49.99;93647.72;6107582;23;20290;-78
2021/06/19 11:17:32;;;;;;;4.10;3.47;;;;;;;28.49;48.94;93659.13;6109344;23;20097;-79
2021/06/19 11:20:06;;;;;;;4.30;3.60;;;;;;;28.41;49.38;93646.78;6117416;23;20029;-79
2021/06/19 11:22:41;;;;;;;4.03;3.70;;;;;;;28.37;47.78;93654.19;6118176;23;20006;-79
2021/06/19 11:25:24;;;;;;;5.32;4.57;;;;;;;28.23;49.51;93659.78;6085734;23;20014;-80
2021/06/19 11:28:09;;;;;;;5.43;4.93;;;;;;;27.81;52.51;93666.31;6122918;23;19994;-79
2021/06/19 11:30:34;;;;;;;6.43;4.28;;;;;;;27.54;52.84;93663.44;6102410;23;20404;-81
2021/06/19 11:33:27;;;;;;;4.65;4.20;;;;;;;27.22;54.10;93668.28;6109389;23;20544;-82
2021/06/19 11:36:14;;;;;;;9.10;5.38;;;;;;;26.95;57.19;93693.19;6107529;23;20404;-80
2021/06/19 11:38:55;;;;;;;9.15;4.75;;;;;;;26.23;58.11;93689.13;6084967;23;20026;-79
2021/06/19 11:41:28;;;;;;;7.55;3.95;;;;;;;25.38;56.01;93702.56;6116069;23;20112;-78
2021/06/19 11:43:54;;;;;;;2.88;2.67;;;;;;;24.69;59.16;93720.84;6116185;23;20018;-78
2021/06/19 11:46:24;;;;;;;6.25;2.85;;;;;;;24.42;59.62;93733.84;6117757;23;20048;-80
2021/06/19 11:49:07;;;;;;;7.47;3.70;;;;;;;24.19;61.86;93749.47;6110686;23;20716;-80
2021/06/19 11:51:33;;;;;;;7.15;3.88;;;;;;;24.03;63.48;93765.16;6080032;23;20385;-80
2021/06/19 11:54:00;;;;;;;11.35;3.60;;;;;;;23.79;63.58;93754.94;6110630;23;20080;-79
2021/06/19 11:56:29;;;;;;;5.13;2.90;;;;;;;23.63;63.67;93755.94;6084837;23;20069;-79
2021/06/19 11:58:55;;;;;;;3.63;3.22;;;;;;;23.46;64.17;93753.84;6115964;23;20013;-79
2021/06/19 12:01:24;;;;;;;3.38;3.05;;;;;;;23.02;62.64;93742.94;6112207;23;20016;-78
2021/06/19 12:03:51;;;;;;;5.13;2.70;;;;;;;22.93;64.75;93739.75;6111528;23;20685;-78
2021/06/19 12:06:17;;;;;;;4.38;2.90;;;;;;;22.65;65.37;93737.47;6112066;23;20100;-78